Time;durP1;ratioP1;P1;durP2;ratioP2;P2;SDS_P1;SDS_P2;PMS_P1;PMS_P2;Temp;Humidity;BMP_temperature;BMP_pressure;BME280_temperature;BME280_humidity;BME280_pressure;Samples;Min_cycle;Max_cycle;Signal;HPM_P1;HPM_P2
2022/01/04 00:02:02;;;;;;;4.82;3.03;;;10.30;99.90;;;;;;5133607;27;20567;-63
2022/01/04 00:04:29;;;;;;;8.15;5.22;;;10.30;99.90;;;;;;5133513;27;20297;-63
2022/01/04 00:06:57;;;;;;;3.00;2.30;;;10.30;99.90;;;;;;5127790;27;20324;-63
2022/01/04 00:09:24;;;;;;;7.70;2.30;;;10.30;99.90;;;;;;5133277;27;20740;-63
2022/01/04 00:13:21;;;;;;;6.07;2.47;;;10.30;99.90;;;;;;5132971;27;20228;-62
2022/01/04 00:14:46;;;;;;;3.40;2.03;;;10.30;99.90;;;;;;5132106;27;20233;-63
2022/01/04 00:17:13;;;;;;;2.47;1.92;;;10.30;99.90;;;;;;5137747;27;20224;-63
2022/01/04 00:19:40;;;;;;;4.45;1.63;;;10.30;99.90;;;;;;5137046;27;20230;-63
2022/01/04 00:22:08;;;;;;;3.25;1.77;;;10.20;99.90;;;;;;5137355;27;20564;-63
2022/01/04 00:24:35;;;;;;;2.42;1.73;;;10.20;99.90;;;;;;5137098;27;20306;-63
2022/01/04 00:27:02;;;;;;;4.55;1.45;;;10.20;99.90;;;;;;5137510;27;20227;-62
2022/01/04 00:29:29;;;;;;;2.80;1.58;;;10.20;99.90;;;;;;5127649;27;20233;-62
2022/01/04 00:31:57;;;;;;;4.43;2.15;;;10.20;99.90;;;;;;5137150;27;20218;-63
2022/01/04 00:34:24;;;;;;;3.47;1.73;;;10.20;99.90;;;;;;5137308;27;20233;-61
2022/01/04 00:36:51;;;;;;;3.45;1.88;;;10.20;99.90;;;;;;5136919;27;20575;-61
2022/01/04 00:39:18;;;;;;;3.55;1.80;;;10.20;99.90;;;;;;5136700;27;20306;-62
2022/01/04 00:41:44;;;;;;;7.60;4.82;;;10.20;99.90;;;;;;5136514;27;20250;-63
2022/01/04 00:44:11;;;;;;;5.80;2.13;;;10.20;99.90;;;;;;5137013;27;20631;-63
2022/01/04 00:46:38;;;;;;;3.28;1.88;;;10.20;99.90;;;;;;5136495;27;20231;-64
2022/01/04 00:49:12;;;;;;;2.97;1.70;;;10.20;99.90;;;;;;5136999;27;20598;-65
2022/01/04 00:51:41;;;;;;;3.08;1.77;;;10.20;99.90;;;;;;5136514;27;20756;-63
2022/01/04 00:54:09;;;;;;;3.08;1.88;;;10.30;99.90;;;;;;5136729;27;20222;-65
2022/01/04 00:56:36;;;;;;;4.10;2.30;;;10.30;99.90;;;;;;5136454;27;20233;-63
2022/01/04 00:59:04;;;;;;;5.50;2.30;;;10.30;99.90;;;;;;5136852;27;20305;-63
2022/01/04 01:01:31;;;;;;;2.63;1.45;;;10.30;99.90;;;;;;5136747;27;20744;-63
2022/01/04 01:03:58;;;;;;;3.20;1.88;;;10.20;99.90;;;;;;5135657;27;20219;-62
2022/01/04 01:06:26;;;;;;;2.38;1.60;;;10.20;99.90;;;;;;5132271;27;20233;-64
2022/01/04 01:08:53;;;;;;;2.15;1.50;;;10.30;99.90;;;;;;5134318;27;20240;-63
2022/01/04 01:11:20;;;;;;;2.75;1.42;;;10.30;99.90;;;;;;5135301;27;20236;-63
2022/01/04 01:13:47;;;;;;;8.05;6.07;;;10.30;99.90;;;;;;5130862;27;20219;-62
2022/01/04 01:16:14;;;;;;;5.05;4.40;;;10.30;99.90;;;;;;5135286;27;20224;-62
2022/01/04 01:18:42;;;;;;;5.30;2.30;;;10.30;99.90;;;;;;5134794;27;20216;-62
2022/01/04 01:21:09;;;;;;;3.20;1.83;;;10.30;99.90;;;;;;5134910;27;20233;-64
2022/01/04 01:23:38;;;;;;;5.32;2.60;;;10.30;99.90;;;;;;5134795;27;20303;-62
2022/01/04 01:26:08;;;;;;;2.55;2.20;;;10.30;99.90;;;;;;5134531;27;20896;-62
2022/01/04 01:28:35;;;;;;;2.40;1.38;;;10.30;99.90;;;;;;5134674;27;20223;-62
2022/01/04 01:31:03;;;;;;;3.10;1.52;;;10.30;99.90;;;;;;5134069;27;20227;-62
2022/01/04 01:33:30;;;;;;;3.40;1.60;;;10.30;99.90;;;;;;5134556;27;20227;-62
2022/01/04 01:35:57;;;;;;;1.70;1.60;;;10.20;99.90;;;;;;5134162;27;20214;-62
2022/01/04 01:38:25;;;;;;;1.50;1.38;;;10.20;99.90;;;;;;5134535;27;20317;-63
2022/01/04 01:40:54;;;;;;;3.45;1.65;;;10.20;99.90;;;;;;5134110;27;20228;-63
2022/01/04 01:43:23;;;;;;;4.50;1.45;;;10.20;99.90;;;;;;5134975;27;20232;-63
2022/01/04 01:45:50;;;;;;;3.05;1.48;;;10.20;99.90;;;;;;5134415;27;20231;-63
2022/01/04 01:48:17;;;;;;;2.75;2.00;;;10.20;99.90;;;;;;5134856;27;20223;-62
2022/01/04 01:50:44;;;;;;;1.73;1.48;;;10.10;99.90;;;;;;5134349;27;20233;-62
2022/01/04 01:53:11;;;;;;;1.60;1.38;;;10.10;99.90;;;;;;5134611;27;20227;-64
2022/01/04 01:55:38;;;;;;;2.65;1.30;;;10.10;99.90;;;;;;5134501;27;20264;-62
2022/01/04 01:58:07;;;;;;;2.28;1.50;;;10.10;99.90;;;;;;5134397;27;20233;-62
2022/01/04 02:00:34;;;;;;;2.20;1.30;;;10.10;99.90;;;;;;5134497;27;20227;-63
2022/01/04 02:03:02;;;;;;;2.45;1.35;;;10.10;99.90;;;;;;5134204;27;20226;-62
2022/01/04 02:05:29;;;;;;;1.48;1.35;;;10.10;99.90;;;;;;5131525;27;20218;-62
2022/01/04 02:07:57;;;;;;;2.40;1.07;;;10.20;99.90;;;;;;5086508;27;1215120;-62
2022/01/04 02:10:24;;;;;;;2.75;1.55;;;10.20;99.90;;;;;;5135369;27;20472;-62
2022/01/04 02:12:51;;;;;;;2.30;1.40;;;10.20;99.90;;;;;;5134894;27;20237;-62
2022/01/04 02:15:21;;;;;;;2.05;1.40;;;10.20;99.90;;;;;;5135306;27;20227;-62
2022/01/04 02:17:49;;;;;;;1.40;0.90;;;10.20;99.90;;;;;;5134928;27;20237;-62
2022/01/04 02:20:17;;;;;;;5.10;1.30;;;10.30;99.90;;;;;;5135334;27;20647;-65
2022/01/04 02:22:45;;;;;;;2.40;1.35;;;10.30;99.90;;;;;;5134981;27;20306;-62
2022/01/04 02:25:13;;;;;;;2.42;1.40;;;10.30;99.90;;;;;;5134934;27;20222;-63
2022/01/04 02:27:41;;;;;;;2.15;1.48;;;10.40;99.90;;;;;;5135190;27;20590;-62
2022/01/04 02:30:11;;;;;;;3.85;1.58;;;10.40;99.90;;;;;;5125105;27;20234;-62
2022/01/04 02:32:38;;;;;;;1.88;1.30;;;10.50;99.90;;;;;;5134982;27;20216;-62
2022/01/04 02:35:06;;;;;;;1.20;1.10;;;10.50;99.90;;;;;;5134739;27;20294;-62
2022/01/04 02:37:34;;;;;;;2.33;1.30;;;10.60;99.90;;;;;;5134123;27;20220;-62
2022/01/04 02:40:02;;;;;;;2.40;1.70;;;10.60;99.90;;;;;;5134579;27;20314;-62
2022/01/04 02:42:29;;;;;;;3.03;1.40;;;10.60;99.90;;;;;;5134874;27;20753;-62
2022/01/04 02:44:58;;;;;;;3.28;1.23;;;10.70;99.90;;;;;;5134302;27;20218;-62
2022/01/04 02:47:25;;;;;;;3.50;1.65;;;10.60;99.90;;;;;;5134745;27;20690;-62
2022/01/04 02:49:51;;;;;;;2.35;1.30;;;10.70;99.90;;;;;;5134396;27;20669;-62
2022/01/04 02:52:18;;;;;;;1.67;1.10;;;10.70;99.90;;;;;;5134499;27;20227;-62
2022/01/04 02:54:46;;;;;;;4.25;1.50;;;10.70;99.90;;;;;;5134766;27;20219;-66
2022/01/04 02:57:13;;;;;;;2.35;1.45;;;10.70;99.90;;;;;;5134116;27;20218;-63
2022/01/04 02:59:40;;;;;;;1.67;1.40;;;10.70;99.90;;;;;;5134635;27;20229;-62
2022/01/04 03:02:07;;;;;;;3.95;1.67;;;10.70;99.90;;;;;;5134140;27;20318;-62
2022/01/04 03:04:34;;;;;;;1.40;1.30;;;10.70;99.90;;;;;;5134347;27;20233;-62
2022/01/04 03:07:02;;;;;;;2.97;1.25;;;10.70;99.90;;;;;;5133762;27;20711;-62
2022/01/04 03:09:29;;;;;;;1.10;1.00;;;10.80;99.90;;;;;;5134283;27;20213;-62
2022/01/04 03:11:57;;;;;;;2.00;1.20;;;10.70;99.90;;;;;;5133871;27;20219;-62
2022/01/04 03:14:24;;;;;;;3.05;1.20;;;10.70;99.90;;;;;;5128155;27;20252;-63
2022/01/04 03:16:51;;;;;;;1.33;1.00;;;10.70;99.90;;;;;;5134043;27;20229;-62
2022/01/04 03:19:18;;;;;;;2.75;1.10;;;10.70;99.90;;;;;;5133711;27;20223;-63
2022/01/04 03:21:45;;;;;;;1.25;1.15;;;10.70;99.90;;;;;;5133913;27;20210;-62
2022/01/04 03:24:13;;;;;;;4.40;1.30;;;10.70;99.90;;;;;;5133330;27;20216;-62
2022/01/04 03:26:40;;;;;;;1.40;1.05;;;10.70;99.90;;;;;;5134318;27;20227;-61
2022/01/04 03:29:11;;;;;;;1.80;1.27;;;10.70;99.90;;;;;;5133780;27;20233;-62
2022/01/04 03:31:38;;;;;;;2.00;1.60;;;10.70;99.90;;;;;;5134220;27;20231;-62
2022/01/04 03:34:06;;;;;;;1.30;1.20;;;10.70;99.90;;;;;;5133715;27;20217;-62
2022/01/04 03:36:33;;;;;;;1.77;1.02;;;10.70;99.90;;;;;;5133982;27;20213;-62
2022/01/04 03:39:04;;;;;;;3.20;1.30;;;10.70;99.90;;;;;;5133466;27;20565;-62
2022/01/04 03:41:32;;;;;;;1.50;1.40;;;10.70;99.90;;;;;;5134068;27;20261;-62
2022/01/04 03:43:59;;;;;;;1.50;1.40;;;10.60;99.90;;;;;;5133733;27;20694;-61
2022/01/04 03:46:27;;;;;;;1.30;1.20;;;10.70;99.90;;;;;;5134031;27;20533;-62
2022/01/04 03:48:54;;;;;;;1.13;1.00;;;10.70;99.90;;;;;;5133374;27;20236;-61
2022/01/04 03:51:20;;;;;;;1.30;1.20;;;10.70;99.90;;;;;;5133893;27;20534;-62
2022/01/04 03:53:47;;;;;;;1.83;1.25;;;10.60;99.90;;;;;;5133839;27;20226;-62
2022/01/04 03:56:14;;;;;;;1.40;1.20;;;10.60;99.90;;;;;;5133264;27;20229;-62
2022/01/04 03:58:41;;;;;;;3.10;1.00;;;10.70;99.90;;;;;;5134010;27;20246;-62
2022/01/04 04:01:08;;;;;;;1.88;1.13;;;10.60;99.90;;;;;;5133390;27;20226;-62
2022/01/04 04:03:36;;;;;;;1.20;1.10;;;10.60;99.90;;;;;;5133843;27;20220;-62
2022/01/04 04:06:03;;;;;;;1.55;1.15;;;10.60;99.90;;;;;;5133216;27;20245;-62
2022/01/04 04:08:30;;;;;;;2.03;1.17;;;10.60;99.90;;;;;;5133572;27;20227;-62
2022/01/04 04:10:57;;;;;;;1.13;1.02;;;10.60;99.90;;;;;;5133021;27;20228;-62
2022/01/04 04:13:24;;;;;;;2.58;1.45;;;10.60;99.90;;;;;;5133822;27;20231;-62
2022/01/04 04:15:51;;;;;;;1.40;1.27;;;10.60;99.90;;;;;;5133486;27;20826;-62
2022/01/04 04:18:18;;;;;;;2.80;1.52;;;10.60;99.90;;;;;;5133159;27;20545;-62
2022/01/04 04:20:47;;;;;;;1.70;1.20;;;10.60;99.90;;;;;;5133616;27;20222;-62
2022/01/04 04:23:14;;;;;;;1.20;1.10;;;10.60;99.90;;;;;;5133095;27;20233;-62
2022/01/04 04:25:41;;;;;;;4.10;1.40;;;10.60;99.90;;;;;;5133555;27;20225;-62
2022/01/04 04:28:08;;;;;;;1.30;1.20;;;10.60;99.90;;;;;;5133248;27;20306;-62
2022/01/04 04:30:36;;;;;;;2.30;1.35;;;10.60;99.90;;;;;;5133473;27;20316;-62
2022/01/04 04:33:03;;;;;;;1.60;1.50;;;10.60;99.90;;;;;;5133045;27;20721;-63
2022/01/04 04:35:31;;;;;;;2.22;1.70;;;10.60;99.90;;;;;;5133630;27;20224;-62
2022/01/04 04:38:00;;;;;;;5.95;1.85;;;10.60;99.90;;;;;;5132873;27;20219;-62
2022/01/04 04:40:27;;;;;;;2.08;1.70;;;10.60;99.90;;;;;;5133321;27;20222;-63
2022/01/04 04:42:54;;;;;;;1.60;1.50;;;10.60;99.90;;;;;;5133627;27;20229;-62
2022/01/04 04:45:21;;;;;;;3.15;2.85;;;10.60;99.90;;;;;;5132951;27;20222;-62
2022/01/04 04:47:48;;;;;;;2.95;2.60;;;10.60;99.90;;;;;;5133295;27;20223;-62
2022/01/04 04:50:15;;;;;;;3.33;2.75;;;10.60;99.90;;;;;;5132853;27;20242;-62
2022/01/04 04:52:41;;;;;;;4.03;2.90;;;10.60;99.90;;;;;;5133403;27;20215;-62
2022/01/04 04:55:11;;;;;;;2.97;2.67;;;10.60;99.90;;;;;;5132983;27;20558;-62
2022/01/04 04:57:38;;;;;;;3.00;2.35;;;10.70;99.90;;;;;;5133285;27;20220;-62
2022/01/04 05:00:06;;;;;;;3.28;1.70;;;10.70;99.90;;;;;;5134797;27;20226;-64
2022/01/04 05:02:33;;;;;;;4.40;2.38;;;10.70;99.90;;;;;;5137069;27;20223;-61
2022/01/04 05:05:00;;;;;;;3.13;2.33;;;10.70;99.90;;;;;;5136807;27;20233;-61
2022/01/04 05:07:27;;;;;;;1.75;1.35;;;10.70;99.90;;;;;;5136495;27;20233;-62
2022/01/04 05:09:54;;;;;;;5.13;2.28;;;10.70;99.90;;;;;;5136808;27;20287;-62
2022/01/04 05:12:22;;;;;;;2.95;1.73;;;10.70;99.90;;;;;;5136507;27;20229;-62
2022/01/04 05:14:49;;;;;;;2.60;1.58;;;10.70;99.90;;;;;;5136958;27;20542;-62
2022/01/04 05:17:16;;;;;;;2.53;1.65;;;10.70;99.90;;;;;;5136355;27;20224;-62
2022/01/04 05:19:43;;;;;;;2.33;2.00;;;10.70;99.90;;;;;;5136728;27;20805;-62
2022/01/04 05:22:10;;;;;;;4.53;1.65;;;10.70;99.90;;;;;;5136162;27;20698;-62
2022/01/04 05:24:36;;;;;;;2.65;1.85;;;10.70;99.90;;;;;;5136698;27;20222;-62
2022/01/04 05:27:04;;;;;;;3.20;2.17;;;10.70;99.90;;;;;;5135998;27;20228;-62
2022/01/04 05:29:33;;;;;;;3.55;1.80;;;10.70;99.90;;;;;;5136624;27;20224;-62
2022/01/04 05:31:59;;;;;;;1.90;1.80;;;10.60;99.90;;;;;;5136676;27;20221;-62
2022/01/04 05:34:26;;;;;;;3.47;2.00;;;10.60;99.90;;;;;;5136427;27;20684;-63
2022/01/04 05:36:53;;;;;;;1.70;1.60;;;10.50;99.90;;;;;;5136198;27;20217;-63
2022/01/04 05:39:21;;;;;;;4.30;2.97;;;10.50;99.90;;;;;;5136009;27;20227;-62
2022/01/04 05:41:47;;;;;;;5.47;2.88;;;10.60;99.90;;;;;;5136416;27;20220;-62
2022/01/04 05:44:14;;;;;;;4.72;3.30;;;10.50;99.90;;;;;;5135825;27;20227;-63
2022/01/04 05:46:42;;;;;;;3.83;3.38;;;10.50;99.90;;;;;;5136173;27;20231;-62
2022/01/04 05:49:10;;;;;;;4.03;3.63;;;10.50;99.90;;;;;;5135796;27;20227;-62
2022/01/04 05:51:37;;;;;;;3.30;3.00;;;10.50;99.90;;;;;;5136233;27;20219;-62
2022/01/04 05:54:04;;;;;;;3.95;2.95;;;10.50;99.90;;;;;;5135728;27;20219;-62
2022/01/04 05:56:31;;;;;;;4.22;2.75;;;10.50;99.90;;;;;;5135863;27;20215;-62
2022/01/04 05:58:58;;;;;;;3.03;2.70;;;10.50;99.90;;;;;;5136065;27;20229;-62
2022/01/04 06:01:25;;;;;;;2.00;1.80;;;10.50;99.90;;;;;;5135410;27;20223;-62
2022/01/04 06:03:53;;;;;;;1.88;1.70;;;10.60;99.90;;;;;;5135758;27;20230;-63
2022/01/04 06:06:20;;;;;;;2.08;1.52;;;10.60;99.90;;;;;;5135514;27;20223;-62
2022/01/04 06:08:48;;;;;;;2.40;2.05;;;10.60;99.90;;;;;;5135474;27;20572;-62
2022/01/04 06:11:30;;;;;;;2.22;2.05;;;10.60;99.90;;;;;;5133921;27;20271;-63
2022/01/04 06:16:42;;;;;;;3.15;2.35;;;10.60;99.90;;;;;;5136003;27;20227;-62
2022/01/04 06:19:11;;;;;;;3.70;2.10;;;10.50;99.90;;;;;;5135384;27;20341;-62
2022/01/04 06:21:37;;;;;;;4.57;2.85;;;10.50;99.90;;;;;;5135253;27;20247;-62
2022/01/04 06:24:05;;;;;;;3.03;2.40;;;10.50;99.90;;;;;;5134955;27;20232;-62
2022/01/04 06:26:32;;;;;;;4.72;2.47;;;10.50;99.90;;;;;;5135323;27;20703;-63
2022/01/04 06:29:00;;;;;;;3.38;2.45;;;10.60;99.90;;;;;;5134906;27;20232;-62
2022/01/04 06:31:27;;;;;;;5.28;2.13;;;10.60;99.90;;;;;;5135284;27;20574;-62
2022/01/04 06:33:54;;;;;;;2.83;2.33;;;10.60;99.90;;;;;;5134913;27;20711;-62
2022/01/04 06:36:22;;;;;;;2.78;1.95;;;10.70;99.90;;;;;;5135211;27;20223;-62
2022/01/04 06:38:49;;;;;;;2.50;2.22;;;10.70;99.90;;;;;;5134770;27;20537;-62
2022/01/04 06:41:16;;;;;;;2.30;2.10;;;10.70;99.90;;;;;;5134868;27;20220;-62
2022/01/04 06:43:43;;;;;;;3.45;3.15;;;10.70;99.90;;;;;;5135101;27;20235;-62
2022/01/04 06:46:11;;;;;;;3.20;2.15;;;10.70;99.90;;;;;;5134566;27;20245;-62
2022/01/04 06:48:38;;;;;;;2.22;2.10;;;10.70;99.90;;;;;;5134964;27;20274;-62
2022/01/04 06:51:05;;;;;;;1.88;1.77;;;10.70;99.90;;;;;;5134489;27;20688;-62
2022/01/04 06:53:34;;;;;;;2.90;2.70;;;10.80;99.90;;;;;;5134941;27;20219;-63
2022/01/04 06:56:01;;;;;;;3.28;2.75;;;10.80;99.90;;;;;;5134359;27;20226;-62
2022/01/04 06:58:28;;;;;;;3.80;2.35;;;10.80;99.90;;;;;;5134672;27;20224;-62
2022/01/04 07:00:55;;;;;;;4.70;3.40;;;10.80;99.90;;;;;;5134262;27;20235;-62
2022/01/04 07:03:21;;;;;;;4.72;2.90;;;10.80;99.90;;;;;;5134644;27;20219;-62
2022/01/04 07:05:48;;;;;;;4.70;2.88;;;10.80;99.90;;;;;;5134146;27;20218;-62
2022/01/04 07:08:15;;;;;;;5.90;2.83;;;10.80;99.90;;;;;;5134336;27;20555;-63
2022/01/04 07:10:43;;;;;;;6.50;5.03;;;10.80;99.90;;;;;;5134273;27;20707;-63
2022/01/04 07:13:10;;;;;;;6.72;5.20;;;10.80;99.90;;;;;;5134054;27;20219;-64
2022/01/04 07:15:37;;;;;;;8.50;6.15;;;10.90;99.90;;;;;;5134460;27;20229;-62
2022/01/04 07:18:04;;;;;;;9.48;5.22;;;10.80;99.90;;;;;;5133803;27;20219;-63
2022/01/04 07:20:31;;;;;;;6.00;5.03;;;10.80;99.90;;;;;;5134462;27;20251;-64
2022/01/04 07:22:58;;;;;;;8.88;5.95;;;10.80;99.90;;;;;;5133433;27;20561;-63
2022/01/04 07:25:25;;;;;;;10.13;5.57;;;10.80;99.90;;;;;;5134201;27;20323;-63
2022/01/04 07:27:53;;;;;;;8.15;6.15;;;10.80;99.90;;;;;;5133872;27;20561;-61
2022/01/04 07:30:20;;;;;;;6.95;5.95;;;10.80;99.90;;;;;;5133958;27;20257;-62
2022/01/04 07:32:47;;;;;;;7.03;5.60;;;10.80;99.90;;;;;;5134183;27;20211;-61
2022/01/04 07:35:14;;;;;;;7.00;4.90;;;10.80;99.90;;;;;;5133741;27;20224;-63
2022/01/04 07:37:40;;;;;;;11.90;8.02;;;10.90;99.90;;;;;;5133978;27;20340;-62
2022/01/04 07:40:10;;;;;;;9.68;7.90;;;10.80;99.90;;;;;;5133509;27;20309;-64
2022/01/04 07:42:36;;;;;;;6.85;5.70;;;10.90;99.90;;;;;;5134009;27;20303;-63
2022/01/04 07:45:05;;;;;;;12.02;4.93;;;10.90;99.90;;;;;;5133610;27;20307;-62
2022/01/04 07:47:32;;;;;;;7.45;4.28;;;10.90;99.90;;;;;;5133983;27;20230;-64
2022/01/04 07:49:59;;;;;;;3.55;3.05;;;10.90;99.90;;;;;;5133401;27;20233;-63
2022/01/04 07:52:26;;;;;;;4.13;3.63;;;10.90;99.90;;;;;;5133760;27;20691;-63
2022/01/04 07:54:53;;;;;;;3.83;3.53;;;10.90;99.90;;;;;;5133430;27;20233;-63
2022/01/04 07:57:20;;;;;;;3.95;3.65;;;10.90;99.90;;;;;;5134040;27;20246;-64
2022/01/04 07:59:47;;;;;;;4.55;3.67;;;10.90;99.90;;;;;;5133859;27;20697;-63
2022/01/04 08:02:16;;;;;;;3.28;2.97;;;10.90;99.90;;;;;;5133306;27;20230;-63
2022/01/04 08:04:42;;;;;;;3.85;3.15;;;10.90;99.90;;;;;;5133677;27;20247;-63
2022/01/04 08:07:09;;;;;;;2.95;2.65;;;10.90;99.90;;;;;;5133023;27;20235;-64
2022/01/04 08:09:36;;;;;;;3.30;3.00;;;10.90;99.90;;;;;;5133560;27;20242;-63
2022/01/04 08:12:04;;;;;;;3.78;3.20;;;10.90;99.90;;;;;;5133266;27;20219;-63
2022/01/04 08:14:31;;;;;;;2.97;2.70;;;10.90;99.90;;;;;;5133658;27;20447;-63
2022/01/04 08:16:57;;;;;;;5.90;2.65;;;10.90;99.90;;;;;;5133301;27;20234;-63
2022/01/04 08:19:26;;;;;;;4.60;3.03;;;10.90;99.90;;;;;;5133728;27;20227;-62
2022/01/04 08:21:53;;;;;;;2.42;2.22;;;10.90;99.90;;;;;;5133642;27;20685;-63
2022/01/04 08:24:20;;;;;;;2.67;2.40;;;10.90;99.90;;;;;;5133255;27;20223;-63
2022/01/04 08:26:46;;;;;;;2.70;2.50;;;11.00;99.90;;;;;;5133526;27;20224;-63
2022/01/04 08:29:13;;;;;;;3.60;2.70;;;10.90;99.90;;;;;;5132809;27;20242;-62
2022/01/04 08:31:40;;;;;;;5.07;3.05;;;11.00;99.90;;;;;;5133460;27;20219;-62
2022/01/04 08:34:07;;;;;;;6.75;5.40;;;11.00;99.90;;;;;;5133620;27;20229;-63
2022/01/04 08:36:37;;;;;;;4.22;3.80;;;11.00;99.90;;;;;;5137497;27;20229;-62
2022/01/04 08:39:04;;;;;;;5.75;3.28;;;11.00;99.90;;;;;;5136945;27;20219;-64
2022/01/04 08:41:31;;;;;;;3.25;2.63;;;11.10;99.90;;;;;;5137280;27;20218;-63
2022/01/04 08:43:58;;;;;;;2.17;1.95;;;11.10;99.90;;;;;;5136952;27;20233;-62
2022/01/04 08:46:25;;;;;;;3.28;2.00;;;11.10;99.90;;;;;;5137406;27;20233;-63
2022/01/04 08:48:52;;;;;;;2.17;1.90;;;11.10;99.90;;;;;;5137246;27;20699;-63
2022/01/04 08:51:19;;;;;;;2.90;2.60;;;11.10;99.90;;;;;;5136643;27;20242;-62
2022/01/04 08:53:47;;;;;;;2.83;2.15;;;11.20;99.90;;;;;;5137237;27;20534;-63
2022/01/04 08:56:18;;;;;;;2.45;1.67;;;11.20;99.90;;;;;;5136556;27;20399;-63
2022/01/04 08:58:45;;;;;;;3.55;1.98;;;11.20;99.90;;;;;;5136990;27;20609;-63
2022/01/04 09:01:12;;;;;;;6.75;6.00;;;11.20;99.90;;;;;;5136528;27;20233;-63
2022/01/04 09:03:38;;;;;;;9.45;6.65;;;11.20;99.90;;;;;;5136910;27;20225;-63
2022/01/04 09:06:07;;;;;;;6.43;4.97;;;11.20;99.90;;;;;;5136451;27;20228;-63
2022/01/04 09:08:36;;;;;;;5.45;4.47;;;11.20;99.90;;;;;;5136679;27;20252;-62
2022/01/04 09:11:04;;;;;;;9.38;4.93;;;11.30;99.90;;;;;;5136362;27;20720;-63
2022/01/04 09:13:36;;;;;;;4.63;4.13;;;11.30;99.90;;;;;;5136991;27;20554;-62
2022/01/04 09:18:50;;;;;;;3.15;2.60;;;11.30;99.90;;;;;;5136933;27;20223;-61
2022/01/04 09:21:20;;;;;;;2.85;2.10;;;11.30;99.90;;;;;;5136180;27;20238;-62
2022/01/04 09:23:48;;;;;;;3.13;2.55;;;11.30;99.90;;;;;;5136611;27;20229;-61
2022/01/04 09:26:19;;;;;;;2.90;2.10;;;11.30;99.90;;;;;;5136201;27;20224;-61
2022/01/04 09:28:46;;;;;;;2.40;1.90;;;11.30;99.90;;;;;;5136435;27;20227;-61
2022/01/04 09:31:14;;;;;;;2.30;2.10;;;11.40;99.90;;;;;;5135950;27;20231;-61
2022/01/04 09:33:42;;;;;;;4.88;2.20;;;11.40;99.90;;;;;;5136659;27;20220;-61
2022/01/04 09:36:09;;;;;;;3.20;1.83;;;11.40;99.90;;;;;;5135976;27;20238;-62
2022/01/04 09:38:36;;;;;;;3.53;1.95;;;11.40;99.90;;;;;;5136238;27;20230;-62
2022/01/04 09:41:03;;;;;;;4.25;2.70;;;11.40;99.90;;;;;;5135936;27;20233;-62
2022/01/04 09:43:32;;;;;;;5.78;2.90;;;11.40;99.90;;;;;;5136350;27;20215;-62
2022/01/04 09:46:00;;;;;;;2.83;2.15;;;11.40;99.90;;;;;;5135976;27;20222;-62
2022/01/04 09:48:27;;;;;;;3.05;2.10;;;11.40;99.90;;;;;;5135909;27;21010;-62
2022/01/04 09:50:56;;;;;;;6.57;2.90;;;11.30;99.90;;;;;;5136131;27;20223;-62
2022/01/04 09:53:24;;;;;;;5.25;4.28;;;11.30;99.90;;;;;;5135558;27;20221;-62
2022/01/04 09:55:52;;;;;;;5.03;4.43;;;11.30;99.90;;;;;;5136001;27;20224;-62
2022/01/04 09:58:19;;;;;;;3.33;3.03;;;11.30;99.90;;;;;;5135471;27;20234;-62
2022/01/04 10:00:51;;;;;;;3.22;2.50;;;11.20;99.90;;;;;;5135863;27;20222;-62
2022/01/04 10:03:21;;;;;;;2.67;2.47;;;11.20;99.90;;;;;;5135537;27;20224;-62
2022/01/04 10:05:48;;;;;;;3.67;3.33;;;11.20;99.90;;;;;;5135851;27;20684;-62
2022/01/04 10:08:16;;;;;;;2.40;2.10;;;11.20;99.90;;;;;;5134989;27;20227;-62
2022/01/04 10:10:43;;;;;;;2.97;2.20;;;11.20;99.90;;;;;;5135739;27;20225;-62
2022/01/04 10:13:12;;;;;;;2.30;1.73;;;11.20;99.90;;;;;;5135317;27;20228;-62
2022/01/04 10:15:42;;;;;;;4.15;1.98;;;11.20;99.90;;;;;;5135438;27;20224;-64
2022/01/04 10:18:23;;;;;;;3.47;2.80;;;11.20;99.90;;;;;;5135213;27;20219;-62
2022/01/04 10:21:10;;;;;;;5.70;2.75;;;11.20;99.90;;;;;;5135486;27;20229;-63
2022/01/04 10:23:46;;;;;;;1.95;1.85;;;11.20;99.90;;;;;;5135288;27;21313;-63
2022/01/04 10:26:13;;;;;;;3.85;2.40;;;11.20;99.90;;;;;;5134994;27;20227;-61
2022/01/04 10:28:43;;;;;;;3.53;2.38;;;11.10;99.90;;;;;;5135139;27;20223;-63
2022/01/04 10:31:12;;;;;;;3.85;2.58;;;11.10;99.90;;;;;;5135201;27;20272;-63
2022/01/04 10:33:40;;;;;;;3.00;2.80;;;11.10;99.90;;;;;;5135128;27;20220;-63
2022/01/04 10:36:11;;;;;;;2.70;1.95;;;11.10;99.90;;;;;;5135208;27;20686;-62
2022/01/04 10:38:40;;;;;;;4.38;2.67;;;11.10;99.90;;;;;;5134840;27;20657;-63
2022/01/04 10:41:10;;;;;;;4.47;2.40;;;11.10;99.90;;;;;;5135020;27;20232;-62
2022/01/04 10:43:43;;;;;;;3.58;2.50;;;11.10;99.90;;;;;;5134762;27;20540;-62
2022/01/04 10:46:11;;;;;;;3.53;2.22;;;11.10;99.90;;;;;;5134922;27;20649;-62
2022/01/04 10:48:41;;;;;;;2.85;1.95;;;11.10;99.90;;;;;;5134630;27;20592;-62
2022/01/04 10:51:10;;;;;;;1.92;1.67;;;11.10;99.90;;;;;;5134759;27;20231;-62
2022/01/04 10:53:39;;;;;;;2.95;2.70;;;11.10;99.90;;;;;;5134334;27;20223;-63
2022/01/04 10:56:08;;;;;;;2.90;2.60;;;11.10;99.90;;;;;;5134951;27;20688;-63
2022/01/04 10:58:38;;;;;;;6.80;3.00;;;11.20;99.90;;;;;;5133610;27;20299;-63
2022/01/04 11:01:08;;;;;;;2.75;2.55;;;11.20;99.90;;;;;;5134641;27;20676;-63
2022/01/04 11:03:37;;;;;;;3.60;2.08;;;11.20;99.90;;;;;;5134404;27;20690;-63
2022/01/04 11:06:08;;;;;;;3.75;1.90;;;11.20;99.90;;;;;;5134448;27;20280;-63
2022/01/04 11:08:36;;;;;;;1.95;1.63;;;11.10;99.90;;;;;;5134036;27;20300;-62
2022/01/04 11:11:04;;;;;;;1.90;1.80;;;11.10;99.90;;;;;;5134610;27;20218;-63
2022/01/04 11:13:31;;;;;;;2.20;1.92;;;11.10;99.90;;;;;;5134240;27;20238;-64
2022/01/04 11:16:00;;;;;;;2.50;2.30;;;11.10;99.90;;;;;;5134345;27;20311;-63
2022/01/04 11:18:29;;;;;;;4.35;3.60;;;11.10;99.90;;;;;;5134033;27;20310;-63
2022/01/04 11:20:56;;;;;;;3.03;2.28;;;11.10;99.90;;;;;;5134375;27;20229;-63
2022/01/04 11:23:26;;;;;;;4.68;3.38;;;11.10;99.90;;;;;;5133769;27;20702;-63
2022/01/04 11:25:54;;;;;;;3.28;2.75;;;11.00;99.90;;;;;;5134260;27;20223;-63
2022/01/04 11:28:22;;;;;;;2.78;1.92;;;11.10;99.90;;;;;;5133746;27;20236;-63
2022/01/04 11:31:03;;;;;;;2.50;2.30;;;11.10;99.90;;;;;;5133954;27;20222;-62
2022/01/04 11:33:33;;;;;;;3.65;2.53;;;11.10;99.90;;;;;;5133742;27;20227;-63
2022/01/04 11:36:01;;;;;;;3.00;2.00;;;11.10;99.90;;;;;;5134383;27;20222;-63
2022/01/04 11:38:34;;;;;;;3.05;2.10;;;11.00;99.90;;;;;;5133569;27;20232;-63
2022/01/04 11:41:02;;;;;;;2.92;2.10;;;11.00;99.90;;;;;;5133869;27;20222;-63
2022/01/04 11:43:32;;;;;;;2.70;2.50;;;11.00;99.90;;;;;;5133410;27;20710;-63
2022/01/04 11:45:59;;;;;;;4.00;3.60;;;10.90;99.90;;;;;;5134143;27;20224;-62
2022/01/04 11:48:31;;;;;;;4.40;4.00;;;10.90;99.90;;;;;;5133499;27;20557;-63
2022/01/04 11:51:00;;;;;;;3.45;3.15;;;10.90;99.90;;;;;;5133666;27;20242;-63
2022/01/04 11:53:31;;;;;;;3.50;2.70;;;10.90;99.90;;;;;;5133549;27;20225;-63
2022/01/04 11:56:03;;;;;;;2.95;2.35;;;10.90;99.90;;;;;;5133804;27;20214;-63
2022/01/04 11:58:44;;;;;;;4.32;2.90;;;10.90;99.90;;;;;;5133367;27;20234;-63
2022/01/04 12:01:12;;;;;;;4.70;2.45;;;10.90;99.90;;;;;;5133823;27;20241;-63
2022/01/04 12:03:41;;;;;;;2.22;2.00;;;10.90;99.90;;;;;;5133513;27;20219;-63
2022/01/04 12:06:09;;;;;;;4.07;3.45;;;10.90;99.90;;;;;;5133655;27;20242;-63
2022/01/04 12:08:39;;;;;;;4.97;2.80;;;10.90;99.90;;;;;;5134507;27;20223;-63
2022/01/04 12:11:20;;;;;;;2.75;2.35;;;10.90;99.90;;;;;;5138098;27;20273;-63
2022/01/04 12:13:51;;;;;;;3.55;3.20;;;10.90;99.90;;;;;;5137943;27;20231;-63
2022/01/04 12:16:34;;;;;;;2.60;2.40;;;10.90;99.90;;;;;;5138047;27;20225;-63
2022/01/04 12:19:06;;;;;;;2.30;2.10;;;10.90;99.90;;;;;;5138338;27;20526;-63
2022/01/04 12:21:39;;;;;;;3.95;2.80;;;10.90;99.90;;;;;;5137551;27;20284;-63
2022/01/04 12:24:08;;;;;;;4.88;3.35;;;10.90;99.90;;;;;;5137861;27;20547;-63
2022/01/04 12:26:38;;;;;;;3.38;2.30;;;11.00;99.90;;;;;;5137503;27;20215;-63
2022/01/04 12:29:22;;;;;;;3.22;2.92;;;11.00;99.90;;;;;;5137508;27;20237;-63
2022/01/04 12:31:51;;;;;;;2.75;2.10;;;11.00;99.90;;;;;;5137827;27;20223;-63
2022/01/04 12:34:37;;;;;;;2.67;2.47;;;11.00;99.90;;;;;;5137503;27;20962;-63
2022/01/04 12:37:06;;;;;;;4.28;2.20;;;11.10;99.90;;;;;;5137152;27;20226;-63
2022/01/04 12:39:40;;;;;;;2.20;2.00;;;11.10;99.90;;;;;;5137340;27;20226;-63
2022/01/04 12:42:11;;;;;;;5.38;3.42;;;11.10;99.90;;;;;;5137018;27;20223;-63
2022/01/04 12:44:39;;;;;;;5.30;4.40;;;11.10;99.90;;;;;;5137364;27;20299;-62
2022/01/04 12:47:08;;;;;;;4.30;3.90;;;11.10;99.90;;;;;;5136902;27;20680;-63
2022/01/04 12:49:35;;;;;;;3.67;3.30;;;11.10;99.90;;;;;;5137042;27;20234;-63
2022/01/04 12:52:06;;;;;;;3.47;2.90;;;11.20;99.90;;;;;;5136612;27;20306;-62
2022/01/04 12:54:34;;;;;;;4.63;3.40;;;11.20;99.90;;;;;;5137203;27;20575;-62
2022/01/04 12:57:04;;;;;;;3.85;3.13;;;11.20;99.90;;;;;;5136713;27;20224;-62